Flight Track Log - Related Links

Times and Time Zones

All times are in EDT time to prevent confusion due to time zone crossing. See the SKW6278 flight status page for this flight to view local times or setup timezone preferences in your user account.

Time Position Orientation Groundspeed Altitude Reporting Facility
EDT Latitude Longitude Course Direction KTS MPH feet Rate Location/Type
Wed 10:22:50 PM 39.9167 -104.7000 348° North 180 207 6,900  Level Denver TRACON
Wed 10:23:56 PM 39.9833 -104.6833 11° North 236 272 8,700 1,669 Climbing Denver TRACON
Wed 10:25:03 PM 40.0603 -104.6975 352° North 282 325 10,600 2,093 Climbing Denver Center
Wed 10:26:05 PM 40.1511 -104.7147 352° North 306 352 13,200 2,195 Climbing Denver Center
Wed 10:27:00 PM 40.4311 -104.8548 346° North  Level FlightAware
Wed 10:27:06 PM 40.2383 -104.7336 351° North 320 368 15,100  Level Denver Center
Wed 10:28:00 PM 40.5281 -104.8866 348° North  Level FlightAware
Wed 10:28:08 PM 40.3289 -104.7519 351° North 330 380 17,100  Level Denver Center
Wed 10:29:10 PM 40.4219 -104.7725 350° North 339 390 17,800 976 Climbing Denver Center
Wed 10:30:11 PM 40.5311 -104.7958 351° North 368 423 19,100 1,317 Climbing Denver Center
Wed 10:31:13 PM 40.6347 -104.8194 350° North 378 435 20,500 1,220 Climbing Denver Center
Wed 10:32:14 PM 40.7439 -104.8422 351° North 387 445 21,600 1,024 Climbing Denver Center
Wed 10:33:16 PM 40.8492 -104.8808 344° North 394 453 22,600 1,024 Climbing Denver Center
Wed 10:34:17 PM 40.9553 -104.9322 340° North 402 463 23,700 1,171 Climbing Denver Center
Wed 10:35:19 PM 41.0689 -104.9903 339° North 404 465 25,000 1,220 Climbing Denver Center
Wed 10:36:20 PM 41.1692 -105.0381 340° North 403 464 26,200 1,073 Climbing Denver Center
Wed 10:37:22 PM 41.2839 -105.0947 340° North 395 455 27,200 732 Climbing Denver Center
Wed 10:38:23 PM 41.3856 -105.1467 339° North 404 465 27,700 439 Climbing Denver Center
Wed 10:39:25 PM 41.4892 -105.1986 339° North 413 475 28,100 488 Climbing Denver Center
Wed 10:40:26 PM 41.5978 -105.2856 329° Northwest 414 476 28,700 585 Climbing Denver Center
Wed 10:41:28 PM 41.6678 -105.3936 311° West 406 467 29,300 537 Climbing Denver Center
Wed 10:42:29 PM 41.7500 -105.5228 310° West 407 468 29,800 492 Climbing Denver Center
Wed 10:43:30 PM 41.8228 -105.6328 312° West 410 472 30,300 488 Climbing Denver Center
Wed 10:44:32 PM 41.8939 -105.7447 310° West 409 471 30,800 488 Climbing Denver Center
Wed 10:45:33 PM 41.9767 -105.8744 311° West 410 472 31,300 488 Climbing Denver Center
Wed 10:46:35 PM 42.0489 -105.9858 311° West 410 472 31,800 341 Climbing Denver Center
Wed 10:47:36 PM 42.1183 -106.0981 310° West 408 470 32,000 98 Climbing Denver Center
Wed 10:48:37 PM 42.2017 -106.2306 310° West 413 475 32,000  Level Denver Center
Wed 10:49:39 PM 42.2758 -106.3458 311° West 423 487 32,000  Level Denver Center
Wed 10:50:40 PM 42.3594 -106.4814 310° West 420 483 32,000  Level Denver Center
Wed 10:51:41 PM 42.4314 -106.5961 310° West 417 480 32,000  Level Denver Center
Wed 10:52:43 PM 42.5033 -106.7122 310° West 418 481 32,000  Level Denver Center
Wed 10:53:44 PM 42.5875 -106.8467 310° West 417 480 32,000  Level Denver Center
Wed 10:54:45 PM 42.6583 -106.9608 310° West 415 478 32,000  Level Denver Center
Wed 10:55:47 PM 42.7394 -107.0939 310° West 410 472 32,000  Level Denver Center
Wed 10:56:48 PM 42.8086 -107.2072 310° West 406 467 32,000  Level Denver Center
Wed 10:57:49 PM 42.8825 -107.3289 310° West 404 465 32,000  Level Denver Center
Wed 10:58:51 PM 42.9497 -107.4406 309° West 403 464 32,000  Level Denver Center
Wed 10:59:52 PM 43.0294 -107.5708 310° West 400 460 32,000  Level Denver Center
Wed 11:00:53 PM 43.1000 -107.6800 312° West 399 459 32,000  Level Denver Center
Wed 11:01:58 PM 43.1922 -107.7861 320° Northwest 391 450 32,000  Level Salt Center
Wed 11:02:59 PM 43.2722 -107.8753 321° Northwest 388 447 32,000  Level Salt Center
Wed 11:04:01 PM 43.3656 -107.9800 321° Northwest 388 447 32,000  Level Salt Center
Wed 11:05:02 PM 43.4450 -108.0700 321° Northwest 388 447 32,000  Level Salt Center
Wed 11:06:03 PM 43.5236 -108.1597 320° Northwest 385 443 32,000  Level Salt Center
Wed 11:07:05 PM 43.6172 -108.2675 320° Northwest 392 451 32,000  Level Salt Center
Wed 11:08:06 PM 43.6975 -108.3594 320° Northwest 392 451 32,000  Level Salt Center
Wed 11:09:07 PM 43.7758 -108.4514 320° Northwest 386 444 32,000  Level Salt Center
Wed 11:10:09 PM 43.8678 -108.5564 321° Northwest 383 441 32,000  Level Salt Center
Wed 11:11:10 PM 43.9456 -108.6472 320° Northwest 381 438 32,000  Level Salt Center
Wed 11:12:11 PM 44.0344 -108.7514 320° Northwest 375 432 32,000  Level Salt Center
Wed 11:13:12 PM 44.1103 -108.8381 321° Northwest 370 426 32,000  Level Salt Center
Wed 11:14:14 PM 44.1850 -108.9264 320° Northwest 367 422 32,000  Level Salt Center
Wed 11:15:15 PM 44.2706 -109.0292 319° Northwest 363 418 32,000  Level Salt Center
Wed 11:16:16 PM 44.3439 -109.1144 320° Northwest 358 412 32,000  Level Salt Center
Wed 11:17:17 PM 44.4153 -109.2006 319° Northwest 353 406 32,000  Level Salt Center
Wed 11:18:19 PM 44.4992 -109.3006 320° Northwest 353 406 32,000  Level Salt Center
Wed 11:19:20 PM 44.5719 -109.3878 320° Northwest 357 411 32,000  Level Salt Center
Wed 11:20:21 PM 44.6442 -109.4744 320° Northwest 358 412 32,000  Level Salt Center
Wed 11:21:22 PM 44.7286 -109.5772 319° Northwest 359 413 32,000  Level Salt Center
Wed 11:22:24 PM 44.8028 -109.6658 320° Northwest 362 417 32,000  Level Salt Center
Wed 11:23:25 PM 44.8869 -109.7694 319° Northwest 360 414 32,000  Level Salt Center
Wed 11:24:26 PM 44.9550 -109.8514 320° Northwest 363 418 32,000  Level Salt Center
Wed 11:25:27 PM 45.0394 -109.9542 319° Northwest 362 417 32,000  Level Salt Center
Wed 11:26:28 PM 45.1200 -110.0522 319° Northwest 366 421 32,000  Level Salt Center
Wed 11:27:30 PM 45.1942 -110.1431 319° Northwest 368 423 32,000  Level Salt Center
Wed 11:28:31 PM 45.2653 -110.2331 318° Northwest 361 415 32,000  Level Salt Center
Wed 11:29:32 PM 45.3506 -110.3383 319° Northwest 362 417 32,000  Level Salt Center
Wed 11:30:33 PM 45.4261 -110.4308 319° Northwest 373 429 32,000  Level Salt Center
Wed 11:31:34 PM 45.5111 -110.5392 318° Northwest 368 423 32,000  Level Salt Center
Wed 11:32:35 PM 45.5819 -110.6272 319° Northwest 359 413 32,000  Level Salt Center
Wed 11:33:37 PM 45.6592 -110.7244 319° Northwest 367 422 32,000  Level Salt Center
Wed 11:34:38 PM 45.7361 -110.8219 319° Northwest 372 428 32,000  Level Salt Center
Wed 11:35:39 PM 45.8119 -110.9183 318° Northwest 371 427 32,000  Level Salt Center
Wed 11:36:40 PM 45.8875 -111.0136 319° Northwest 371 427 32,000  Level Salt Center
Wed 11:37:41 PM 45.9781 -111.1303 318° Northwest 371 427 32,000  Level Salt Center
Wed 11:38:42 PM 46.0539 -111.2289 318° Northwest 371 427 32,000  Level Salt Center
Wed 11:39:43 PM 46.1300 -111.3275 318° Northwest 370 426 32,000  Level Salt Center
Wed 11:40:44 PM 46.2056 -111.4267 318° Northwest 368 423 32,000  Level Salt Center
Wed 11:41:46 PM 46.2808 -111.5247 318° Northwest 366 421 32,000  Level Salt Center
Wed 11:42:47 PM 46.3558 -111.6219 318° Northwest 365 420 32,000  Level Salt Center
Wed 11:43:48 PM 46.4308 -111.7217 318° Northwest 364 419 32,000  Level Salt Center
Wed 11:44:49 PM 46.5028 -111.8158 318° Northwest 367 422 32,000  Level Salt Center
Wed 11:45:50 PM 46.5792 -111.9158 318° Northwest 368 423 32,000  Level Salt Center
Wed 11:46:51 PM 46.6697 -112.0353 318° Northwest 368 423 32,000  Level Salt Center
Wed 11:47:52 PM 46.7458 -112.1361 318° Northwest 370 426 32,000  Level Salt Center
Wed 11:48:53 PM 46.8203 -112.2356 318° Northwest 366 421 32,000  Level Salt Center
Wed 11:49:54 PM 46.8961 -112.3367 318° Northwest 367 422 32,000  Level Salt Center
Wed 11:50:55 PM 46.9703 -112.4369 317° Northwest 365 420 32,000 -49 Level Salt Center
Wed 11:51:56 PM 47.0458 -112.5392 317° Northwest 367 422 31,900 -344 Descending Salt Center
Wed 11:52:57 PM 47.1211 -112.6414 317° Northwest 368 423 31,300 -885 Descending Salt Center
Wed 11:53:58 PM 47.1981 -112.7453 317° Northwest 370 426 30,100 -1,328 Descending Salt Center
Wed 11:54:59 PM 47.2706 -112.8483 316° Northwest 368 423 28,600 -1,721 Descending Salt Center
Wed 11:56:00 PM 47.3453 -112.9511 317° Northwest 368 423 26,600 -1,967 Descending Salt Center
Wed 11:57:01 PM 47.4247 -113.0533 319° Northwest 374 430 24,600 -1,967 Descending Salt Center
Wed 11:58:02 PM 47.4994 -113.1594 316° Northwest 375 432 22,600 -1,967 Descending Salt Center
Wed 11:59:03 PM 47.5761 -113.2664 317° Northwest 377 434 20,600 -1,967 Descending Salt Center
Thu 12:00:04 AM 47.6664 -113.3931 317° Northwest 376 433 18,600 -1,475 Descending Salt Center
Thu 12:01:05 AM 47.7394 -113.4964 316° Northwest 369 425 17,600 -1,180 Descending Salt Center
Thu 12:02:06 AM 47.8114 -113.5972 317° Northwest 362 417 16,200 -1,426 Descending Salt Center
Thu 12:03:07 AM 47.8822 -113.6992 316° Northwest 357 411 14,700 -1,279 Descending Salt Center
Thu 12:04:08 AM 47.9519 -113.7972 317° Northwest 353 406 13,600 -1,279 Descending Salt Center
Thu 12:05:09 AM 48.0139 -113.8864 316° Northwest 334 384 12,100 -1,426 Descending Salt Center
Thu 12:06:10 AM 48.0675 -113.9617 317° Northwest 298 343 10,700 -1,475 Descending Salt Center
Thu 12:07:11 AM 48.1192 -114.0294 319° Northwest 271 312 9,100 -1,770 Descending Salt Center
Thu 12:08:12 AM 48.1783 -114.0833 329° Northwest 258 297 7,100 -1,426 Descending Salt Center
Thu 12:09:13 AM 48.2386 -114.1286 333° Northwest 251 289 6,200 -1,082 Descending Salt Center
Thu 12:10:14 AM 48.3006 -114.1650 339° North 220 253 4,900 -1,082 Descending Salt Center
Thu 12:11:15 AM 48.3475 -114.1889 341° North 196 226 4,000 -885 Descending Salt Center

Login

Don't have an account? Register now (free) for customized features, flight alerts, and more!